createdAt,value
2023-04-09T00:01:32.131Z,0
2023-04-09T00:06:39.129Z,0
2023-04-09T00:11:46.133Z,0
2023-04-09T00:16:53.145Z,0
2023-04-09T00:22:00.150Z,0
2023-04-09T00:27:07.149Z,0
2023-04-09T00:32:14.157Z,0
2023-04-09T00:37:21.173Z,0
2023-04-09T00:42:28.168Z,0
2023-04-09T00:47:35.164Z,0
2023-04-09T00:52:43.015Z,0
2023-04-09T00:57:50.840Z,0
2023-04-09T01:02:58.661Z,0
2023-04-09T01:08:04.942Z,0
2023-04-09T01:13:11.094Z,0
2023-04-09T01:18:17.240Z,0
2023-04-09T01:23:23.394Z,0
2023-04-09T01:28:29.553Z,0
2023-04-09T01:33:35.695Z,0
2023-04-09T01:38:41.847Z,0
2023-04-09T01:48:54.153Z,0
2023-04-09T01:54:00.292Z,0
2023-04-09T01:59:06.457Z,0
2023-04-09T02:04:12.598Z,0
2023-04-09T02:09:18.738Z,0
2023-04-09T02:14:24.899Z,0
2023-04-09T02:19:31.051Z,0
2023-04-09T02:24:37.201Z,0
2023-04-09T02:29:43.378Z,0
2023-04-09T02:34:49.493Z,0
2023-04-09T02:39:55.656Z,0
2023-04-09T02:45:01.802Z,0
2023-04-09T02:50:07.955Z,0
2023-04-09T02:55:14.113Z,0
2023-04-09T03:00:20.258Z,0
2023-04-09T03:05:26.425Z,0
2023-04-09T03:10:32.574Z,0
2023-04-09T03:15:38.821Z,0
2023-04-09T03:20:45.092Z,0
2023-04-09T03:25:51.366Z,0
2023-04-09T03:30:57.618Z,0
2023-04-09T03:36:03.876Z,0
2023-04-09T03:41:10.139Z,0
2023-04-09T03:46:16.412Z,0
2023-04-09T03:51:22.668Z,0
2023-04-09T03:56:28.938Z,0
2023-04-09T04:01:35.193Z,0
2023-04-09T04:06:41.465Z,0
2023-04-09T04:11:47.713Z,0
2023-04-09T04:16:53.993Z,0
2023-04-09T04:22:00.459Z,0
2023-04-09T04:27:06.928Z,0
2023-04-09T04:32:13.396Z,0
2023-04-09T04:37:19.861Z,0
2023-04-09T04:42:26.341Z,0
2023-04-09T04:47:32.801Z,0
2023-04-09T04:52:39.271Z,0
2023-04-09T04:57:45.750Z,0
2023-04-09T05:02:52.227Z,0
2023-04-09T05:07:58.667Z,0
2023-04-09T05:13:05.150Z,0
2023-04-09T05:18:11.623Z,0
2023-04-09T05:23:18.103Z,0
2023-04-09T05:28:25.101Z,0
2023-04-09T05:33:32.119Z,0
2023-04-09T05:38:39.118Z,0
2023-04-09T05:43:46.116Z,0
2023-04-09T05:48:53.135Z,0
2023-04-09T05:54:00.139Z,0
2023-04-09T05:59:07.136Z,0
2023-04-09T06:04:12.925Z,0
2023-04-09T06:09:19.106Z,0
2023-04-09T06:14:25.245Z,0
2023-04-09T06:19:31.407Z,0
2023-04-09T06:24:37.544Z,0
2023-04-09T06:29:43.693Z,0
2023-04-09T06:34:49.848Z,0
2023-04-09T06:39:55.997Z,0
2023-04-09T06:45:02.136Z,5
2023-04-09T06:50:08.278Z,5
2023-04-09T06:55:14.440Z,5
2023-04-09T07:00:20.604Z,5
2023-04-09T07:05:26.757Z,5
2023-04-09T07:10:33.049Z,5
2023-04-09T07:15:39.161Z,5
2023-04-09T07:20:45.390Z,5
2023-04-09T07:25:50.632Z,5
2023-04-09T07:30:56.462Z,5
2023-04-09T07:36:02.534Z,5
2023-04-09T07:41:08.629Z,5
2023-04-09T07:46:14.711Z,5
2023-04-09T07:51:20.996Z,5
2023-04-09T07:56:27.014Z,5
2023-04-09T08:01:33.092Z,5
2023-04-09T08:06:39.217Z,5
2023-04-09T08:11:45.157Z,5
2023-04-09T08:16:51.415Z,5
2023-04-09T08:21:57.526Z,5
2023-04-09T08:27:03.580Z,5
2023-04-09T08:32:09.676Z,5
2023-04-09T08:37:15.635Z,5
2023-04-09T08:42:21.828Z,5
2023-04-09T08:47:27.939Z,5
2023-04-09T08:52:33.878Z,5
2023-04-09T08:57:40.159Z,5
2023-04-09T09:02:46.162Z,5
2023-04-09T09:07:52.314Z,5
2023-04-09T09:12:58.248Z,5
2023-04-09T09:18:04.414Z,5
2023-04-09T09:23:10.554Z,5
2023-04-09T09:28:16.536Z,5
2023-04-09T09:33:22.662Z,5
2023-04-09T09:38:28.975Z,5
2023-04-09T09:43:34.954Z,5
2023-04-09T09:48:41.102Z,5
2023-04-09T09:53:47.257Z,5
2023-04-09T09:58:53.403Z,5
2023-04-09T10:03:59.554Z,5
2023-04-09T10:09:05.705Z,5
2023-04-09T10:14:11.864Z,5
2023-04-09T10:19:18.006Z,5
2023-04-09T10:24:24.157Z,5
2023-04-09T10:29:30.313Z,11
2023-04-09T10:34:36.461Z,11
2023-04-09T10:39:42.726Z,11
2023-04-09T10:44:48.986Z,11
2023-04-09T10:49:55.251Z,11
2023-04-09T10:55:01.539Z,11
2023-04-09T11:00:07.784Z,11
2023-04-09T11:05:14.053Z,11
2023-04-09T11:10:20.311Z,11
2023-04-09T11:15:26.569Z,11
2023-04-09T11:20:32.844Z,11
2023-04-09T11:25:39.118Z,11
2023-04-09T11:30:45.359Z,11
2023-04-09T11:35:51.619Z,11
2023-04-09T11:40:57.886Z,11
2023-04-09T11:46:04.362Z,11
2023-04-09T11:51:10.829Z,11
2023-04-09T11:56:17.302Z,11
2023-04-09T12:01:23.792Z,11
2023-04-09T12:06:29.169Z,11
2023-04-09T12:11:35.259Z,11
2023-04-09T12:16:41.350Z,11
2023-04-09T12:21:47.434Z,11
2023-04-09T12:26:53.528Z,11
2023-04-09T12:31:58.626Z,11
2023-04-09T12:37:04.729Z,11
2023-04-09T12:42:10.807Z,11
2023-04-09T12:47:16.895Z,16
2023-04-09T12:52:22.991Z,16
2023-04-09T12:57:29.067Z,16
2023-04-09T13:02:35.192Z,16
2023-04-09T13:07:41.258Z,16
2023-04-09T13:12:47.341Z,22
2023-04-09T13:17:53.429Z,28
2023-04-09T13:22:59.540Z,50
2023-04-09T13:28:05.608Z,67
2023-04-09T13:33:11.696Z,106
2023-04-09T13:38:17.822Z,185
2023-04-09T13:43:23.878Z,168
2023-04-09T13:48:29.960Z,241
2023-04-09T13:53:36.054Z,185
2023-04-09T13:58:42.152Z,202
2023-04-09T14:03:48.225Z,185
2023-04-09T14:08:54.326Z,202
2023-04-09T14:14:00.410Z,168
2023-04-09T14:19:06.501Z,196
2023-04-09T14:24:12.598Z,151
2023-04-09T14:29:17.693Z,174
2023-04-09T14:34:23.790Z,180
2023-04-09T14:39:29.899Z,157
2023-04-09T14:44:35.971Z,118
2023-04-09T14:49:42.053Z,78
2023-04-09T14:54:48.157Z,61
2023-04-09T14:59:54.262Z,56
2023-04-09T15:05:00.339Z,45
2023-04-09T15:10:06.433Z,39
2023-04-09T15:15:12.520Z,33
2023-04-09T15:20:18.606Z,28
2023-04-09T15:25:24.704Z,28
2023-04-09T15:30:30.782Z,22
2023-04-09T15:35:36.875Z,22
2023-04-09T15:40:42.953Z,16
2023-04-09T15:45:49.041Z,16
2023-04-09T15:50:55.135Z,16
2023-04-09T15:56:01.229Z,11
2023-04-09T16:01:07.322Z,11
2023-04-09T16:06:13.408Z,11
2023-04-09T16:11:19.498Z,11
2023-04-09T16:16:25.597Z,11
2023-04-09T16:21:31.677Z,11
2023-04-09T16:26:37.761Z,5
2023-04-09T16:31:43.860Z,5
2023-04-09T16:36:50.007Z,5
2023-04-09T16:41:56.155Z,5
2023-04-09T16:47:02.313Z,0
2023-04-09T16:52:08.457Z,0
2023-04-09T16:57:14.607Z,0
2023-04-09T17:02:20.746Z,0
2023-04-09T17:07:26.929Z,0
2023-04-09T17:12:33.056Z,0
2023-04-09T17:17:39.220Z,0
2023-04-09T17:22:45.373Z,0
2023-04-09T17:27:51.515Z,0
2023-04-09T17:32:57.663Z,0
2023-04-09T17:38:03.815Z,0
2023-04-09T17:43:10.082Z,0
2023-04-09T17:48:16.341Z,0
2023-04-09T17:53:22.603Z,0
2023-04-09T17:58:28.867Z,0
2023-04-09T18:03:35.136Z,0
2023-04-09T18:08:41.397Z,0
2023-04-09T18:13:47.666Z,0
2023-04-09T18:18:53.953Z,0
2023-04-09T18:24:00.182Z,0
2023-04-09T18:29:06.457Z,0
2023-04-09T18:34:12.731Z,0
2023-04-09T18:39:18.975Z,0
2023-04-09T18:44:25.245Z,0
2023-04-09T18:49:31.728Z,0
2023-04-09T18:54:38.186Z,0
2023-04-09T18:59:44.658Z,0
2023-04-09T19:04:51.166Z,0
2023-04-09T19:09:57.597Z,0
2023-04-09T19:15:04.066Z,0
2023-04-09T19:20:10.540Z,0
2023-04-09T19:25:17.013Z,0
2023-04-09T19:30:23.490Z,0
2023-04-09T19:35:29.944Z,0
2023-04-09T19:40:36.443Z,0
2023-04-09T19:45:42.879Z,0
2023-04-09T19:50:49.372Z,0
2023-04-09T19:55:56.423Z,0
2023-04-09T20:01:03.370Z,0
2023-04-09T20:06:10.370Z,0
2023-04-09T20:11:17.375Z,0
2023-04-09T20:16:24.370Z,0
2023-04-09T20:21:31.421Z,0
2023-04-09T20:26:38.392Z,0
2023-04-09T20:31:45.390Z,0
2023-04-09T20:36:52.400Z,0
2023-04-09T20:41:59.433Z,0
2023-04-09T20:47:06.407Z,0
2023-04-09T20:52:13.409Z,0
2023-04-09T20:57:20.421Z,0
2023-04-09T21:02:28.328Z,0
2023-04-09T21:07:36.098Z,0
2023-04-09T21:12:43.909Z,0
2023-04-09T21:17:51.741Z,0
2023-04-09T21:22:59.571Z,0
2023-04-09T21:28:07.406Z,0
2023-04-09T21:33:15.231Z,0
2023-04-09T21:38:23.084Z,0
2023-04-09T21:43:30.887Z,0
2023-04-09T21:48:38.706Z,0
2023-04-09T21:53:46.546Z,0
2023-04-09T21:58:54.418Z,0
2023-04-09T22:04:02.184Z,0
2023-04-09T22:09:10.051Z,0
2023-04-09T22:14:17.871Z,0
2023-04-09T22:19:25.686Z,0
2023-04-09T22:24:33.524Z,0
2023-04-09T22:29:41.337Z,0
2023-04-09T22:34:49.160Z,0
2023-04-09T22:39:56.997Z,0
2023-04-09T22:45:04.821Z,0
2023-04-09T22:50:12.637Z,0
2023-04-09T22:55:20.463Z,0
2023-04-09T23:00:28.307Z,0
2023-04-09T23:05:36.112Z,0
2023-04-09T23:10:43.951Z,0
2023-04-09T23:15:51.778Z,0
2023-04-09T23:20:59.608Z,0
2023-04-09T23:26:07.424Z,0
2023-04-09T23:31:15.259Z,0
2023-04-09T23:36:23.095Z,0
2023-04-09T23:41:30.904Z,0
2023-04-09T23:46:38.750Z,0
2023-04-09T23:51:46.570Z,0
2023-04-09T23:56:54.402Z,0
